Time;durP1;ratioP1;P1;durP2;ratioP2;P2;SDS_P1;SDS_P2;PMS_P1;PMS_P2;Temp;Humidity;BMP_temperature;BMP_pressure;BME280_temperature;BME280_humidity;BME280_pressure;Samples;Min_cycle;Max_cycle;Signal;HPM_P1;HPM_P2
2022/05/30 00:02:21;;;;;;;2.03;1.93;;;12.60;88.30;;;;;;5069025;28;20258;-68
2022/05/30 00:04:47;;;;;;;2.10;1.90;;;12.70;88.50;;;;;;5081444;28;20223;-68
2022/05/30 00:07:13;;;;;;;2.03;1.93;;;12.70;88.50;;;;;;5061947;28;20224;-67
2022/05/30 00:09:38;;;;;;;1.97;1.87;;;12.70;88.00;;;;;;5051614;28;20741;-68
2022/05/30 00:12:05;;;;;;;1.67;1.57;;;12.70;87.90;;;;;;5069185;28;20219;-68
2022/05/30 00:14:30;;;;;;;1.70;1.60;;;12.70;88.00;;;;;;5054013;28;20265;-68
2022/05/30 00:16:57;;;;;;;3.53;1.97;;;12.70;88.10;;;;;;5066550;28;20900;-69
2022/05/30 00:19:23;;;;;;;2.00;1.90;;;12.70;87.80;;;;;;5075116;28;20211;-68
2022/05/30 00:21:48;;;;;;;2.33;2.13;;;12.70;87.90;;;;;;5055962;28;20456;-67
2022/05/30 00:24:14;;;;;;;2.67;2.20;;;12.70;87.90;;;;;;5056088;28;20811;-68
2022/05/30 00:26:40;;;;;;;2.10;1.90;;;12.60;87.90;;;;;;5071833;28;20293;-68
2022/05/30 00:29:06;;;;;;;2.83;2.53;;;12.60;87.70;;;;;;5055554;28;20276;-68
2022/05/30 00:31:33;;;;;;;2.20;2.10;;;12.60;87.80;;;;;;5069984;28;20311;-66
2022/05/30 00:33:59;;;;;;;2.33;2.13;;;12.60;87.70;;;;;;5053061;28;20448;-68
2022/05/30 00:36:25;;;;;;;2.20;2.00;;;12.60;87.40;;;;;;5056190;28;20458;-66
2022/05/30 00:38:51;;;;;;;2.03;1.90;;;12.50;87.70;;;;;;5054931;28;20957;-70
2022/05/30 00:41:17;;;;;;;4.70;2.00;;;12.40;87.40;;;;;;5073795;28;20318;-68
2022/05/30 00:43:47;;;;;;;2.40;2.20;;;12.30;88.30;;;;;;5073060;28;20222;-67
2022/05/30 00:46:15;;;;;;;3.07;2.10;;;12.30;87.80;;;;;;5053936;28;20457;-68
2022/05/30 00:48:51;;;;;;;3.90;2.30;;;12.40;87.90;;;;;;5072283;28;20468;-68
2022/05/30 00:51:21;;;;;;;1.97;1.80;;;12.40;88.10;;;;;;5087264;28;20952;-68
2022/05/30 00:53:51;;;;;;;2.70;2.50;;;12.30;87.70;;;;;;5078729;28;20453;-68
2022/05/30 00:56:17;;;;;;;2.63;2.10;;;12.30;87.50;;;;;;5055784;28;20858;-68
2022/05/30 00:58:48;;;;;;;2.90;2.50;;;12.30;87.50;;;;;;5063659;28;20454;-68
2022/05/30 01:01:15;;;;;;;2.97;2.50;;;12.30;87.70;;;;;;5065708;28;20517;-69
2022/05/30 01:06:39;;;;;;;2.47;2.23;;;12.20;87.20;;;;;;5071538;28;20484;-69
2022/05/30 01:09:19;;;;;;;3.33;2.60;;;12.20;87.50;;;;;;5072106;28;20477;-68
2022/05/30 01:12:02;;;;;;;2.57;2.37;;;12.20;87.30;;;;;;5065752;28;21008;-68
2022/05/30 01:14:31;;;;;;;3.43;2.43;;;12.10;87.00;;;;;;5072708;28;20480;-67
2022/05/30 01:16:58;;;;;;;2.20;2.10;;;12.10;87.10;;;;;;5071784;28;20442;-67
2022/05/30 01:19:27;;;;;;;3.33;2.47;;;12.00;87.20;;;;;;5080065;28;20968;-68
2022/05/30 01:22:02;;;;;;;3.10;2.70;;;12.10;87.10;;;;;;5071705;28;20480;-68
2022/05/30 01:24:55;;;;;;;4.20;3.20;;;12.00;87.10;;;;;;5071884;28;20444;-67
2022/05/30 01:28:03;;;;;;;3.30;2.90;;;12.00;87.60;;;;;;5064455;28;20456;-68
2022/05/30 01:30:34;;;;;;;3.13;2.77;;;11.90;87.30;;;;;;5067490;28;20450;-66
2022/05/30 01:32:59;;;;;;;3.93;2.30;;;11.90;87.50;;;;;;5052113;28;20441;-68
2022/05/30 01:35:28;;;;;;;3.30;3.00;;;11.80;87.60;;;;;;5070423;28;20457;-68
2022/05/30 01:37:57;;;;;;;4.23;3.27;;;11.80;87.70;;;;;;5052830;28;20485;-68
2022/05/30 01:40:26;;;;;;;2.57;2.37;;;11.80;87.50;;;;;;5056532;28;20482;-68
2022/05/30 01:42:53;;;;;;;3.47;3.07;;;11.70;87.60;;;;;;5070375;28;20885;-68
2022/05/30 01:45:19;;;;;;;2.87;2.57;;;11.70;88.00;;;;;;5072564;28;20497;-68
2022/05/30 01:47:46;;;;;;;3.60;3.10;;;11.70;87.60;;;;;;5057486;28;20473;-68
2022/05/30 01:50:12;;;;;;;4.10;2.60;;;11.70;87.70;;;;;;5071436;28;20913;-67
2022/05/30 01:52:40;;;;;;;2.60;2.40;;;11.70;87.60;;;;;;5070984;28;21001;-69
2022/05/30 01:55:06;;;;;;;4.93;2.70;;;11.70;87.40;;;;;;5069910;28;20456;-69
2022/05/30 01:57:50;;;;;;;3.27;2.80;;;11.60;87.70;;;;;;5052404;28;20220;-68
2022/05/30 02:00:42;;;;;;;3.20;2.87;;;11.60;87.30;;;;;;5073435;28;20997;-68
2022/05/30 02:03:08;;;;;;;3.10;2.80;;;11.60;87.70;;;;;;5078251;28;20457;-69
2022/05/30 02:05:34;;;;;;;3.00;2.67;;;11.60;87.70;;;;;;5070928;28;20855;-69
2022/05/30 02:08:01;;;;;;;3.90;3.10;;;11.60;87.80;;;;;;5068353;28;20211;-67
2022/05/30 02:10:30;;;;;;;2.87;2.63;;;11.50;87.90;;;;;;5054959;28;20306;-68
2022/05/30 02:12:58;;;;;;;3.10;2.90;;;11.40;88.50;;;;;;5070307;28;20477;-68
2022/05/30 02:17:00;;;;;;;3.73;2.47;;;11.40;89.20;;;;;;5070749;28;20461;-68
2022/05/30 02:18:21;;;;;;;4.00;2.63;;;11.30;89.80;;;;;;5070131;28;20531;-68
2022/05/30 02:20:48;;;;;;;3.90;3.37;;;11.30;90.10;;;;;;5066812;28;20549;-68
2022/05/30 02:23:14;;;;;;;3.73;3.30;;;11.20;90.70;;;;;;5054044;28;20334;-68
2022/05/30 02:25:40;;;;;;;4.23;3.10;;;11.20;91.00;;;;;;5055120;28;20497;-67
2022/05/30 02:28:06;;;;;;;6.37;4.17;;;11.00;91.20;;;;;;5072366;28;20206;-67
2022/05/30 02:30:32;;;;;;;4.53;3.50;;;11.00;91.50;;;;;;5070269;28;20815;-66
2022/05/30 02:36:38;;;;;;;4.63;3.93;;;10.90;92.00;;;;;;5069007;28;20219;-68
2022/05/30 02:38:28;;;;;;;5.97;4.20;;;10.90;92.10;;;;;;5070252;28;20450;-67
2022/05/30 02:41:20;;;;;;;4.83;4.07;;;10.90;92.60;;;;;;5058721;28;20516;-68
2022/05/30 02:43:54;;;;;;;5.53;4.50;;;10.90;91.90;;;;;;5058796;28;20457;-68
2022/05/30 02:46:20;;;;;;;5.77;3.93;;;11.00;91.70;;;;;;5066876;28;20545;-69
2022/05/30 02:48:47;;;;;;;4.97;4.17;;;11.00;91.80;;;;;;5069709;28;20461;-67
2022/05/30 02:51:12;;;;;;;5.00;3.80;;;11.00;91.40;;;;;;5062665;28;20458;-68
2022/05/30 02:53:38;;;;;;;9.47;5.73;;;11.00;91.60;;;;;;5077423;28;20449;-68
2022/05/30 02:56:23;;;;;;;4.40;3.77;;;11.00;91.50;;;;;;5074003;28;20456;-68
2022/05/30 02:58:49;;;;;;;5.80;4.17;;;11.10;91.30;;;;;;5076712;28;20456;-68
2022/05/30 03:01:15;;;;;;;4.87;3.70;;;11.10;91.60;;;;;;5064229;28;20868;-68
2022/05/30 03:03:43;;;;;;;7.17;4.43;;;11.10;91.50;;;;;;5049324;28;20458;-69
2022/05/30 03:06:09;;;;;;;6.83;4.97;;;11.00;91.40;;;;;;5063751;28;20457;-68
2022/05/30 03:08:35;;;;;;;6.57;4.30;;;11.10;91.30;;;;;;5054725;28;20481;-68
2022/05/30 03:11:10;;;;;;;8.47;4.90;;;11.10;91.40;;;;;;5073308;28;20979;-66
2022/05/30 03:13:36;;;;;;;6.03;4.53;;;11.10;91.30;;;;;;5064784;28;20454;-69
2022/05/30 03:16:03;;;;;;;5.10;4.20;;;11.10;91.40;;;;;;5059012;28;20453;-69
2022/05/30 03:18:29;;;;;;;7.17;4.70;;;11.10;91.30;;;;;;5073691;28;20460;-67
2022/05/30 03:20:55;;;;;;;6.10;4.80;;;11.10;91.10;;;;;;5072195;28;20941;-68
2022/05/30 03:23:21;;;;;;;5.70;4.37;;;11.10;91.00;;;;;;5072310;28;20226;-67
2022/05/30 03:26:06;;;;;;;6.53;4.80;;;11.10;91.10;;;;;;5073427;28;20257;-68
2022/05/30 03:28:34;;;;;;;7.67;4.30;;;11.10;91.00;;;;;;5069336;28;20464;-68
2022/05/30 03:31:02;;;;;;;7.50;5.10;;;11.10;91.00;;;;;;5074673;28;20453;-69
2022/05/30 03:33:31;;;;;;;8.13;6.03;;;11.00;91.30;;;;;;5072265;28;20457;-68
2022/05/30 03:35:58;;;;;;;5.80;4.77;;;11.00;91.40;;;;;;5069038;28;20473;-68
2022/05/30 03:38:43;;;;;;;8.37;5.57;;;11.00;91.30;;;;;;5065379;28;20512;-67
2022/05/30 03:41:28;;;;;;;7.27;5.30;;;10.90;91.30;;;;;;5065898;28;21030;-67
2022/05/30 03:44:08;;;;;;;9.60;4.90;;;11.00;91.20;;;;;;5048860;28;20465;-67
2022/05/30 03:46:34;;;;;;;6.80;4.70;;;11.00;91.30;;;;;;5065871;28;20808;-68
2022/05/30 03:49:01;;;;;;;4.97;3.90;;;10.90;91.20;;;;;;5068136;28;20642;-68
2022/05/30 03:51:27;;;;;;;8.87;5.70;;;10.90;90.90;;;;;;5070611;28;20446;-68
2022/05/30 03:53:54;;;;;;;6.67;4.50;;;11.00;91.10;;;;;;5049485;28;20504;-67
2022/05/30 03:56:20;;;;;;;7.30;4.87;;;10.90;91.00;;;;;;5056337;28;20448;-67
2022/05/30 03:58:47;;;;;;;5.97;4.57;;;10.90;91.00;;;;;;5048152;28;20488;-68
2022/05/30 04:01:13;;;;;;;7.10;5.50;;;10.90;91.20;;;;;;5068559;28;20510;-68
2022/05/30 04:03:39;;;;;;;6.93;4.70;;;10.90;91.10;;;;;;5089317;28;20486;-68
2022/05/30 04:06:07;;;;;;;8.03;6.63;;;10.90;91.10;;;;;;5078930;28;20222;-68
2022/05/30 04:08:33;;;;;;;8.20;5.80;;;10.90;91.10;;;;;;5076542;28;20453;-67
2022/05/30 04:11:18;;;;;;;7.03;5.00;;;10.90;91.10;;;;;;5066810;28;21019;-69
2022/05/30 04:14:02;;;;;;;6.43;4.73;;;10.90;90.90;;;;;;5067066;28;20477;-68
2022/05/30 04:16:34;;;;;;;6.17;5.43;;;10.90;91.00;;;;;;5083706;28;20530;-67
2022/05/30 04:19:04;;;;;;;8.50;5.70;;;10.90;91.30;;;;;;5064266;28;20453;-69
2022/05/30 04:21:29;;;;;;;6.67;5.03;;;10.90;91.10;;;;;;5052501;28;20545;-69
2022/05/30 04:23:55;;;;;;;8.30;5.70;;;10.90;91.30;;;;;;5069283;28;20722;-68
2022/05/30 04:26:23;;;;;;;8.57;5.23;;;10.90;91.10;;;;;;5071987;28;20240;-68
2022/05/30 04:28:51;;;;;;;5.83;4.37;;;10.90;92.30;;;;;;5067826;28;20449;-69
2022/05/30 04:31:36;;;;;;;6.13;4.33;;;10.90;91.30;;;;;;5060084;28;20491;-69
2022/05/30 04:34:03;;;;;;;3.90;3.47;;;10.90;91.40;;;;;;5067892;28;20456;-69
2022/05/30 04:36:28;;;;;;;4.83;4.07;;;10.90;92.10;;;;;;5070783;28;20465;-69
2022/05/30 04:38:55;;;;;;;5.23;4.10;;;10.90;92.00;;;;;;5067951;28;20457;-69
2022/05/30 04:41:40;;;;;;;5.70;4.30;;;10.90;92.10;;;;;;5066623;28;20476;-68
2022/05/30 04:44:24;;;;;;;5.93;4.23;;;10.90;92.40;;;;;;5069649;28;20544;-67
2022/05/30 04:47:11;;;;;;;5.97;4.87;;;10.90;92.20;;;;;;5069073;28;20448;-68
2022/05/30 04:49:41;;;;;;;7.30;4.60;;;10.90;92.00;;;;;;5058037;28;20970;-68
2022/05/30 04:52:08;;;;;;;5.80;4.53;;;10.90;92.40;;;;;;5064478;28;20454;-68
2022/05/30 04:54:34;;;;;;;7.60;4.00;;;11.00;92.20;;;;;;5071517;28;20449;-68
2022/05/30 04:57:00;;;;;;;6.13;4.30;;;11.00;92.10;;;;;;5075342;28;20518;-69
2022/05/30 04:59:28;;;;;;;5.83;3.73;;;11.00;93.30;;;;;;5072551;28;20202;-68
2022/05/30 05:02:00;;;;;;;4.20;3.67;;;11.00;92.80;;;;;;5073965;28;21038;-69
2022/05/30 05:04:27;;;;;;;4.73;4.13;;;11.10;93.00;;;;;;5050850;28;20458;-70
2022/05/30 05:06:53;;;;;;;7.63;3.93;;;11.10;93.80;;;;;;5071016;28;20479;-68
2022/05/30 05:09:28;;;;;;;5.20;3.80;;;11.10;93.80;;;;;;5071949;28;20314;-67
2022/05/30 05:12:12;;;;;;;6.93;3.93;;;11.20;93.90;;;;;;5057534;28;20230;-69
2022/05/30 05:14:56;;;;;;;5.40;3.80;;;11.20;94.30;;;;;;5064491;28;20463;-67
2022/05/30 05:17:45;;;;;;;6.13;4.10;;;11.20;93.60;;;;;;5064887;28;20972;-68
2022/05/30 05:20:11;;;;;;;4.50;4.07;;;11.30;93.30;;;;;;5067411;28;20470;-71
2022/05/30 05:22:37;;;;;;;5.00;4.33;;;11.30;93.90;;;;;;5075018;28;20219;-69
2022/05/30 05:25:03;;;;;;;4.57;3.47;;;11.30;94.70;;;;;;5068606;28;21028;-69
2022/05/30 05:27:40;;;;;;;4.03;3.07;;;11.40;94.60;;;;;;5052639;28;20272;-68
2022/05/30 05:30:07;;;;;;;5.00;4.27;;;11.40;94.30;;;;;;5071070;28;20965;-68
2022/05/30 05:32:33;;;;;;;4.00;3.57;;;11.40;95.30;;;;;;5053754;28;20454;-67
2022/05/30 05:35:00;;;;;;;7.13;3.90;;;11.50;95.50;;;;;;5062075;28;20478;-68
2022/05/30 05:37:25;;;;;;;3.63;3.07;;;11.50;94.80;;;;;;5070266;28;20501;-69
2022/05/30 05:40:11;;;;;;;4.93;4.07;;;11.60;95.30;;;;;;5062399;28;20231;-68
2022/05/30 05:42:39;;;;;;;4.57;3.20;;;11.70;96.10;;;;;;5061069;28;20459;-70
2022/05/30 05:45:07;;;;;;;3.87;3.30;;;11.70;96.10;;;;;;5068193;28;20487;-67
2022/05/30 05:47:34;;;;;;;4.90;4.30;;;11.70;95.40;;;;;;5068015;28;20450;-69
2022/05/30 05:50:01;;;;;;;7.33;3.10;;;11.80;95.20;;;;;;5061642;28;20446;-68
2022/05/30 05:52:28;;;;;;;5.37;3.30;;;11.80;94.70;;;;;;5058394;28;21052;-68
2022/05/30 05:54:56;;;;;;;5.90;3.40;;;11.90;95.50;;;;;;5058400;28;20538;-68
2022/05/30 05:57:25;;;;;;;3.77;2.73;;;11.90;95.50;;;;;;5056087;28;20526;-68
2022/05/30 05:59:52;;;;;;;4.50;3.40;;;12.00;96.10;;;;;;5064777;28;20496;-69
2022/05/30 06:02:18;;;;;;;4.57;3.70;;;12.10;96.00;;;;;;5056644;28;20879;-69
2022/05/30 06:04:45;;;;;;;4.90;3.37;;;12.20;96.10;;;;;;5062656;28;20477;-68
2022/05/30 06:07:50;;;;;;;4.00;2.93;;;12.20;95.50;;;;;;5065349;28;20499;-69
2022/05/30 06:11:05;;;;;;;2.77;2.20;;;12.30;96.20;;;;;;5046905;28;20442;-68
2022/05/30 06:13:24;;;;;;;2.40;2.17;;;12.40;96.70;;;;;;5060500;28;20995;-68
2022/05/30 06:15:50;;;;;;;4.43;2.97;;;12.50;96.30;;;;;;5066954;28;20450;-69
2022/05/30 06:18:29;;;;;;;3.43;2.80;;;12.60;96.80;;;;;;5070087;28;20218;-68
2022/05/30 06:20:58;;;;;;;2.20;2.10;;;12.70;96.50;;;;;;5063267;28;20822;-67
2022/05/30 06:23:23;;;;;;;3.10;2.77;;;12.70;96.10;;;;;;5058087;28;20328;-68
2022/05/30 06:26:09;;;;;;;2.80;2.60;;;12.80;96.30;;;;;;5067673;28;20553;-68
2022/05/30 06:28:40;;;;;;;3.50;2.53;;;12.80;96.10;;;;;;5058062;28;20460;-68
2022/05/30 06:31:19;;;;;;;3.27;2.30;;;12.90;96.10;;;;;;5060763;28;21061;-69
2022/05/30 06:33:49;;;;;;;3.10;2.77;;;12.90;95.80;;;;;;5063335;28;20458;-69
2022/05/30 06:36:39;;;;;;;3.20;2.90;;;13.00;96.30;;;;;;5064303;28;21005;-68
2022/05/30 06:39:04;;;;;;;3.37;2.80;;;13.10;96.60;;;;;;5046333;28;20545;-69
2022/05/30 06:41:42;;;;;;;2.70;2.50;;;13.30;96.70;;;;;;5059597;28;20600;-67
2022/05/30 06:44:10;;;;;;;5.50;2.80;;;13.40;97.00;;;;;;5067665;28;20461;-68
2022/05/30 06:46:54;;;;;;;4.07;3.03;;;13.50;96.70;;;;;;5056445;28;20465;-70
2022/05/30 06:49:39;;;;;;;4.30;4.00;;;13.50;96.80;;;;;;5060995;28;20502;-68
2022/05/30 06:52:06;;;;;;;3.10;2.80;;;13.60;96.30;;;;;;5068256;28;20482;-70
2022/05/30 06:54:31;;;;;;;3.77;3.10;;;13.60;96.70;;;;;;5059961;28;20465;-69
2022/05/30 06:59:43;;;;;;;3.70;2.83;;;13.80;97.00;;;;;;5069019;28;20465;-70
2022/05/30 07:02:09;;;;;;;3.03;2.37;;;13.90;96.90;;;;;;5061244;28;20941;-71
2022/05/30 07:04:53;;;;;;;4.60;2.83;;;14.00;96.30;;;;;;5069263;28;20980;-71
2022/05/30 07:07:41;;;;;;;2.50;2.30;;;14.10;96.50;;;;;;5073188;28;20540;-70
2022/05/30 07:10:30;;;;;;;2.80;2.50;;;14.10;96.40;;;;;;5078741;28;20458;-68
2022/05/30 07:13:17;;;;;;;5.80;2.60;;;14.20;96.40;;;;;;5084197;28;20537;-71
2022/05/30 07:15:48;;;;;;;3.03;2.53;;;14.30;96.40;;;;;;5052019;28;20445;-69
2022/05/30 07:18:20;;;;;;;2.87;2.60;;;14.40;96.40;;;;;;5064169;28;20894;-69
2022/05/30 07:20:55;;;;;;;3.37;2.63;;;14.40;96.20;;;;;;5061164;28;20480;-68
2022/05/30 07:23:27;;;;;;;3.90;2.47;;;14.50;95.60;;;;;;5072399;28;20524;-69
2022/05/30 07:26:16;;;;;;;2.90;2.00;;;14.50;96.20;;;;;;5060559;28;20493;-69
2022/05/30 07:29:00;;;;;;;2.17;1.97;;;14.60;96.20;;;;;;5057483;28;20526;-70
2022/05/30 07:31:45;;;;;;;3.33;2.50;;;14.90;96.30;;;;;;5070907;28;20461;-69
2022/05/30 07:34:32;;;;;;;3.83;2.53;;;15.00;96.10;;;;;;5042053;28;20470;-70
2022/05/30 07:37:16;;;;;;;2.70;2.30;;;15.10;95.70;;;;;;5063566;28;20500;-69
2022/05/30 07:40:00;;;;;;;3.40;2.80;;;15.20;95.60;;;;;;5048008;28;20494;-68
2022/05/30 07:42:37;;;;;;;3.63;2.50;;;15.20;95.40;;;;;;5064954;28;20547;-69
2022/05/30 07:45:32;;;;;;;3.43;2.90;;;15.20;95.50;;;;;;5047568;28;20459;-69
2022/05/30 07:48:12;;;;;;;3.27;3.00;;;15.30;95.50;;;;;;5059045;28;20835;-67
2022/05/30 07:51:02;;;;;;;3.00;2.50;;;15.30;94.80;;;;;;5060356;28;20533;-68
2022/05/30 07:53:41;;;;;;;2.70;2.13;;;15.20;94.80;;;;;;5059944;28;20461;-69
2022/05/30 07:56:21;;;;;;;2.50;2.00;;;15.30;94.90;;;;;;5057438;28;20460;-69
2022/05/30 07:58:49;;;;;;;3.03;2.07;;;15.30;94.80;;;;;;5044534;28;20581;-68
2022/05/30 08:01:18;;;;;;;6.67;2.27;;;15.40;94.50;;;;;;5051754;28;20456;-67
2022/05/30 08:03:48;;;;;;;3.70;1.80;;;15.40;94.40;;;;;;5066079;28;20464;-70
2022/05/30 08:06:36;;;;;;;2.90;2.17;;;15.50;94.40;;;;;;5066314;28;20449;-69
2022/05/30 08:09:20;;;;;;;2.10;1.87;;;15.60;94.20;;;;;;5064247;28;20456;-69
2022/05/30 08:11:56;;;;;;;2.03;1.50;;;15.60;93.70;;;;;;5050254;28;20453;-69
2022/05/30 08:14:41;;;;;;;2.70;1.97;;;15.50;93.40;;;;;;5059610;28;20976;-69
2022/05/30 08:17:07;;;;;;;2.20;1.93;;;15.50;93.50;;;;;;5058535;28;20456;-69
2022/05/30 08:19:33;;;;;;;1.53;1.43;;;15.60;93.50;;;;;;5057870;28;20219;-68
2022/05/30 08:22:07;;;;;;;2.03;1.70;;;15.50;93.20;;;;;;5056579;28;20451;-69
2022/05/30 08:24:39;;;;;;;2.43;1.80;;;15.60;93.40;;;;;;5053395;28;20264;-69
2022/05/30 08:27:10;;;;;;;1.60;1.50;;;15.60;93.00;;;;;;5068183;28;20464;-68
2022/05/30 08:29:42;;;;;;;1.80;1.70;;;15.60;93.20;;;;;;5048890;28;20473;-68
2022/05/30 08:32:09;;;;;;;2.17;1.60;;;15.60;92.90;;;;;;5060798;28;20448;-68
2022/05/30 08:34:53;;;;;;;2.20;1.60;;;15.60;92.90;;;;;;5067070;28;20897;-70
2022/05/30 08:37:19;;;;;;;2.40;1.77;;;15.70;93.10;;;;;;5058600;28;20525;-70
2022/05/30 08:42:31;;;;;;;1.43;1.33;;;15.70;93.00;;;;;;5068302;28;20454;-67
2022/05/30 08:45:18;;;;;;;2.10;2.00;;;15.60;92.50;;;;;;5059821;28;20464;-68
2022/05/30 08:48:20;;;;;;;4.10;2.33;;;15.60;92.70;;;;;;5068313;28;20452;-67
2022/05/30 08:51:06;;;;;;;4.47;2.20;;;15.60;92.90;;;;;;5059448;28;20450;-68
2022/05/30 08:53:53;;;;;;;4.37;2.30;;;15.50;92.60;;;;;;5062520;28;20450;-68
2022/05/30 08:56:33;;;;;;;2.30;2.10;;;15.50;92.90;;;;;;5082547;28;20489;-67
2022/05/30 08:59:29;;;;;;;2.93;2.27;;;15.50;92.80;;;;;;5061259;28;20515;-69
2022/05/30 09:02:21;;;;;;;2.93;2.10;;;15.50;92.80;;;;;;5063303;28;20739;-68
2022/05/30 09:05:00;;;;;;;3.27;2.20;;;15.50;92.60;;;;;;5066513;28;20448;-70
2022/05/30 09:07:29;;;;;;;1.97;1.87;;;15.60;93.20;;;;;;5064393;28;21019;-68
2022/05/30 09:10:07;;;;;;;2.23;2.03;;;15.70;93.00;;;;;;5068992;28;20521;-71
2022/05/30 09:12:41;;;;;;;2.17;1.77;;;15.70;92.50;;;;;;5057120;28;20578;-70
2022/05/30 09:15:34;;;;;;;2.23;1.57;;;15.70;92.60;;;;;;5076968;28;20969;-68
2022/05/30 09:18:10;;;;;;;5.27;1.77;;;15.70;92.10;;;;;;5075034;28;20514;-70
2022/05/30 09:20:38;;;;;;;1.43;1.40;;;15.70;92.20;;;;;;5065322;28;20460;-69
2022/05/30 09:23:08;;;;;;;2.13;1.70;;;15.70;92.10;;;;;;5063875;28;20814;-69
2022/05/30 09:25:56;;;;;;;1.83;1.70;;;15.70;92.10;;;;;;5059249;28;20457;-69
2022/05/30 09:28:40;;;;;;;2.00;1.90;;;15.60;92.30;;;;;;5063569;28;20465;-69
2022/05/30 09:31:43;;;;;;;4.97;1.80;;;15.70;92.20;;;;;;5063291;28;20456;-69
2022/05/30 09:34:35;;;;;;;1.83;1.30;;;15.80;92.20;;;;;;5061048;28;20953;-69
2022/05/30 09:37:35;;;;;;;1.63;1.53;;;15.80;92.00;;;;;;5068804;28;21059;-71
2022/05/30 09:40:20;;;;;;;3.23;1.57;;;15.80;91.60;;;;;;5060615;28;20573;-68
2022/05/30 09:43:07;;;;;;;1.77;1.67;;;15.80;92.00;;;;;;5063468;28;20557;-69
2022/05/30 09:45:35;;;;;;;1.57;1.47;;;15.80;92.20;;;;;;5061695;28;20458;-69
2022/05/30 09:48:18;;;;;;;1.53;1.43;;;15.90;91.80;;;;;;5066074;28;20465;-69
2022/05/30 09:51:12;;;;;;;1.60;1.50;;;15.90;91.70;;;;;;5071241;28;20469;-71
2022/05/30 09:53:50;;;;;;;1.60;1.50;;;15.90;92.00;;;;;;5049950;28;20474;-69
2022/05/30 09:56:20;;;;;;;6.00;1.60;;;16.00;92.30;;;;;;5039571;28;20502;-69
2022/05/30 09:59:13;;;;;;;1.60;1.50;;;16.00;91.90;;;;;;5062855;28;20572;-69
2022/05/30 10:01:51;;;;;;;2.10;1.50;;;16.00;91.70;;;;;;5067338;28;20473;-70
2022/05/30 10:04:39;;;;;;;1.40;1.33;;;16.00;91.60;;;;;;5048217;28;20490;-69
2022/05/30 10:07:15;;;;;;;1.60;1.43;;;16.10;91.80;;;;;;5075046;28;20504;-70
2022/05/30 10:10:22;;;;;;;1.93;1.47;;;16.30;91.70;;;;;;5062257;28;20534;-70
2022/05/30 10:13:03;;;;;;;5.10;1.80;;;16.40;91.80;;;;;;5065712;28;20449;-69
2022/05/30 10:15:57;;;;;;;1.57;1.50;;;16.50;91.80;;;;;;5061040;28;20496;-70
2022/05/30 10:18:29;;;;;;;1.90;1.80;;;16.70;91.70;;;;;;5059312;28;20466;-72
2022/05/30 10:21:17;;;;;;;1.63;1.53;;;16.90;91.60;;;;;;5065414;28;20858;-69
2022/05/30 10:30:42;;;;;;;3.37;1.30;;;17.30;91.00;;;;;;5061170;28;20464;-68
2022/05/30 10:33:49;;;;;;;1.70;1.60;;;17.40;90.70;;;;;;5069225;28;20458;-70
2022/05/30 10:36:33;;;;;;;2.00;1.37;;;17.50;90.30;;;;;;5072528;28;20462;-69
2022/05/30 10:39:11;;;;;;;1.60;1.50;;;17.50;90.40;;;;;;5056103;28;20474;-69
2022/05/30 10:41:52;;;;;;;1.60;1.50;;;17.50;90.30;;;;;;5058153;28;20469;-68
2022/05/30 10:44:26;;;;;;;1.63;1.40;;;17.40;90.40;;;;;;5077791;28;20796;-69
2022/05/30 10:46:56;;;;;;;1.40;1.30;;;17.40;90.30;;;;;;5065216;28;20505;-69
2022/05/30 10:49:35;;;;;;;1.50;1.40;;;17.40;90.40;;;;;;5053806;28;20958;-70
2022/05/30 10:52:08;;;;;;;1.50;1.40;;;17.40;90.20;;;;;;5076853;28;20857;-70
2022/05/30 10:54:56;;;;;;;2.93;1.50;;;17.40;90.00;;;;;;5047870;28;21002;-69
2022/05/30 10:57:33;;;;;;;1.77;1.67;;;17.30;89.70;;;;;;5062352;28;20456;-69
2022/05/30 11:00:13;;;;;;;1.17;1.07;;;17.40;90.00;;;;;;5044075;28;20471;-70
2022/05/30 11:03:01;;;;;;;1.83;1.50;;;17.40;90.10;;;;;;5046040;28;20541;-70
2022/05/30 11:05:37;;;;;;;1.63;1.50;;;17.40;89.80;;;;;;5070297;28;20945;-67
2022/05/30 11:08:21;;;;;;;2.20;1.60;;;17.40;90.10;;;;;;5056889;28;20459;-69
2022/05/30 11:10:56;;;;;;;3.10;1.53;;;17.30;88.00;;;;;;5057139;28;20477;-70
2022/05/30 11:13:40;;;;;;;1.80;1.53;;;17.40;89.40;;;;;;5052977;28;20490;-69
2022/05/30 11:16:22;;;;;;;1.70;1.60;;;17.30;89.10;;;;;;5075678;28;20450;-68
2022/05/30 11:19:24;;;;;;;2.87;2.03;;;17.40;89.50;;;;;;5053788;28;20465;-69
2022/05/30 11:22:19;;;;;;;1.40;1.30;;;17.40;88.40;;;;;;5057756;28;20448;-68
2022/05/30 11:24:51;;;;;;;1.60;1.50;;;17.30;87.60;;;;;;5060088;28;20572;-68
2022/05/30 11:27:37;;;;;;;6.30;1.70;;;17.40;88.30;;;;;;5050061;28;20454;-70
2022/05/30 11:30:27;;;;;;;1.80;1.70;;;17.40;88.00;;;;;;5057748;28;20479;-69
2022/05/30 11:33:04;;;;;;;1.50;1.40;;;17.30;86.90;;;;;;5069071;28;20454;-69
2022/05/30 11:35:55;;;;;;;2.97;1.73;;;17.30;86.30;;;;;;5060365;28;20530;-69
2022/05/30 11:38:41;;;;;;;1.13;1.03;;;17.30;86.20;;;;;;5062795;28;20458;-69
2022/05/30 11:41:25;;;;;;;1.17;1.17;;;17.30;85.50;;;;;;5061022;28;20477;-69
2022/05/30 11:44:09;;;;;;;1.60;1.50;;;17.30;85.80;;;;;;5061064;28;20477;-70
2022/05/30 11:47:05;;;;;;;1.47;1.20;;;17.30;84.60;;;;;;5066364;28;20551;-69
2022/05/30 11:49:35;;;;;;;1.30;1.20;;;17.20;84.70;;;;;;5060388;28;20465;-69
2022/05/30 11:52:20;;;;;;;1.67;1.57;;;17.30;84.90;;;;;;5060132;28;20873;-69
2022/05/30 11:54:51;;;;;;;2.07;1.60;;;17.10;86.30;;;;;;5064041;28;20468;-70
2022/05/30 11:57:16;;;;;;;6.40;1.83;;;17.10;87.40;;;;;;5062089;28;20488;-69
2022/05/30 12:00:20;;;;;;;3.60;1.77;;;17.10;87.40;;;;;;5070151;28;20458;-69
2022/05/30 12:02:57;;;;;;;2.00;1.90;;;17.20;87.90;;;;;;5038981;28;20239;-69
2022/05/30 12:05:32;;;;;;;3.10;2.13;;;17.20;88.20;;;;;;5028914;28;20462;-70
2022/05/30 12:08:19;;;;;;;1.63;1.53;;;17.30;87.70;;;;;;5053013;28;20452;-71
2022/05/30 12:10:54;;;;;;;1.53;1.43;;;17.30;87.90;;;;;;5065326;28;20456;-68
2022/05/30 12:13:43;;;;;;;2.50;1.90;;;17.30;87.80;;;;;;5066754;28;20457;-69
2022/05/30 12:16:46;;;;;;;1.60;1.50;;;17.30;87.70;;;;;;5062617;28;20481;-69
2022/05/30 12:25:34;;;;;;;1.97;1.87;;;17.50;87.30;;;;;;5061532;28;20524;-71
2022/05/30 12:28:00;;;;;;;1.70;1.60;;;17.50;87.80;;;;;;5051559;28;20465;-67
2022/05/30 12:30:37;;;;;;;1.70;1.60;;;17.70;88.00;;;;;;5056435;28;20446;-68
2022/05/30 12:33:28;;;;;;;2.20;2.10;;;17.90;87.70;;;;;;5060434;28;20219;-70
2022/05/30 12:36:16;;;;;;;2.20;1.50;;;18.10;86.80;;;;;;5055780;28;20458;-69
2022/05/30 12:39:00;;;;;;;1.40;1.30;;;18.00;85.50;;;;;;5058987;28;20457;-69
2022/05/30 12:41:29;;;;;;;1.63;1.53;;;18.10;85.50;;;;;;5056086;28;20496;-71
2022/05/30 12:43:55;;;;;;;2.33;1.43;;;18.20;85.40;;;;;;5064045;28;20514;-69
2022/05/30 12:46:28;;;;;;;1.63;1.40;;;18.20;84.90;;;;;;5046873;28;20461;-68
2022/05/30 12:49:16;;;;;;;1.57;1.47;;;18.30;85.20;;;;;;5053114;28;20212;-69
2022/05/30 12:51:57;;;;;;;1.60;1.50;;;18.40;85.90;;;;;;5060802;28;20972;-68
2022/05/30 12:54:33;;;;;;;2.07;1.70;;;18.60;85.10;;;;;;5077240;28;21004;-70
2022/05/30 12:57:22;;;;;;;1.43;1.33;;;18.70;86.10;;;;;;5057013;28;20458;-69
2022/05/30 13:00:04;;;;;;;2.13;1.50;;;18.80;84.60;;;;;;5062508;28;20469;-68
2022/05/30 13:02:54;;;;;;;2.70;2.50;;;18.70;84.10;;;;;;5064530;28;20682;-69
2022/05/30 13:05:31;;;;;;;2.70;1.70;;;18.50;82.70;;;;;;5059405;28;20537;-69
2022/05/30 13:07:58;;;;;;;1.80;1.70;;;18.50;83.50;;;;;;5070015;28;20443;-68
2022/05/30 13:10:24;;;;;;;2.90;1.93;;;18.60;82.90;;;;;;5054458;28;20453;-71
2022/05/30 13:13:03;;;;;;;2.13;1.87;;;18.60;81.90;;;;;;5052726;28;20484;-69
2022/05/30 13:15:44;;;;;;;2.00;1.90;;;18.50;80.80;;;;;;5065475;28;20211;-68
2022/05/30 13:18:15;;;;;;;2.07;1.30;;;18.40;81.40;;;;;;5059421;28;20496;-68
2022/05/30 13:20:51;;;;;;;2.20;2.00;;;18.60;82.20;;;;;;5076222;28;20997;-69
2022/05/30 13:23:34;;;;;;;1.53;1.43;;;18.60;82.00;;;;;;5071399;28;20466;-69
2022/05/30 13:26:05;;;;;;;5.37;2.10;;;18.80;82.40;;;;;;5062304;28;20482;-71
2022/05/30 13:28:38;;;;;;;2.27;2.17;;;18.80;81.00;;;;;;5073930;28;20485;-70
2022/05/30 13:31:08;;;;;;;2.57;2.37;;;18.80;81.20;;;;;;5062583;28;20462;-70
2022/05/30 13:33:50;;;;;;;2.30;2.10;;;18.90;80.70;;;;;;5047725;28;21045;-68
2022/05/30 13:36:30;;;;;;;2.20;1.80;;;18.80;80.50;;;;;;5051934;28;20458;-69
2022/05/30 13:38:57;;;;;;;2.03;1.77;;;18.80;80.90;;;;;;5068994;28;20462;-69
2022/05/30 13:41:26;;;;;;;3.27;1.87;;;19.00;81.70;;;;;;5057524;28;20531;-69
2022/05/30 13:43:56;;;;;;;1.63;1.53;;;19.10;81.20;;;;;;5076519;28;20453;-68
2022/05/30 13:46:27;;;;;;;4.20;1.33;;;19.10;80.10;;;;;;5066089;28;20454;-69
2022/05/30 13:48:53;;;;;;;1.87;1.77;;;19.10;80.00;;;;;;5079691;28;20465;-70
2022/05/30 13:51:44;;;;;;;2.00;1.80;;;19.10;80.80;;;;;;5076299;28;20461;-68
2022/05/30 13:54:11;;;;;;;1.57;1.43;;;19.30;80.40;;;;;;5076116;28;20780;-69
2022/05/30 13:56:38;;;;;;;1.97;1.80;;;19.30;79.10;;;;;;5074209;28;20458;-71